sensor_id;sensor_type;location;lat;lon;timestamp;temperature;humidity
72814;DHT22;60945;48.516;-2.768;2024-02-21T00:02:09;10.60;84.90
72814;DHT22;60945;48.516;-2.768;2024-02-21T00:04:35;10.60;84.40
72814;DHT22;60945;48.516;-2.768;2024-02-21T00:07:02;10.50;85.30
72814;DHT22;60945;48.516;-2.768;2024-02-21T00:09:27;10.70;84.70
72814;DHT22;60945;48.516;-2.768;2024-02-21T00:11:53;10.60;84.30
72814;DHT22;60945;48.516;-2.768;2024-02-21T00:14:19;10.50;85.30
72814;DHT22;60945;48.516;-2.768;2024-02-21T00:16:44;10.60;84.90
72814;DHT22;60945;48.516;-2.768;2024-02-21T00:19:10;10.80;84.00
72814;DHT22;60945;48.516;-2.768;2024-02-21T00:21:35;10.80;83.20
72814;DHT22;60945;48.516;-2.768;2024-02-21T00:24:01;10.70;83.80
72814;DHT22;60945;48.516;-2.768;2024-02-21T00:26:27;10.70;83.70
72814;DHT22;60945;48.516;-2.768;2024-02-21T00:28:53;10.60;84.30
72814;DHT22;60945;48.516;-2.768;2024-02-21T00:31:18;10.60;83.80
72814;DHT22;60945;48.516;-2.768;2024-02-21T00:33:44;10.50;84.10
72814;DHT22;60945;48.516;-2.768;2024-02-21T00:36:09;10.60;84.00
72814;DHT22;60945;48.516;-2.768;2024-02-21T00:38:35;10.60;84.00
72814;DHT22;60945;48.516;-2.768;2024-02-21T00:41:01;10.70;83.50
72814;DHT22;60945;48.516;-2.768;2024-02-21T00:43:26;10.70;82.30
72814;DHT22;60945;48.516;-2.768;2024-02-21T00:45:52;10.70;82.40
72814;DHT22;60945;48.516;-2.768;2024-02-21T00:48:18;10.80;82.30
72814;DHT22;60945;48.516;-2.768;2024-02-21T00:50:43;10.90;81.40
72814;DHT22;60945;48.516;-2.768;2024-02-21T00:53:09;10.90;80.30
72814;DHT22;60945;48.516;-2.768;2024-02-21T00:55:35;10.90;80.30
72814;DHT22;60945;48.516;-2.768;2024-02-21T00:58:01;10.90;80.10
72814;DHT22;60945;48.516;-2.768;2024-02-21T01:00:26;11.00;80.30
72814;DHT22;60945;48.516;-2.768;2024-02-21T01:02:52;11.00;79.80
72814;DHT22;60945;48.516;-2.768;2024-02-21T01:05:18;10.90;79.90
72814;DHT22;60945;48.516;-2.768;2024-02-21T01:07:44;10.90;80.30
72814;DHT22;60945;48.516;-2.768;2024-02-21T01:10:10;10.90;79.90
72814;DHT22;60945;48.516;-2.768;2024-02-21T01:12:36;10.70;80.90
72814;DHT22;60945;48.516;-2.768;2024-02-21T01:15:02;10.80;81.00
72814;DHT22;60945;48.516;-2.768;2024-02-21T01:17:28;10.90;80.50
72814;DHT22;60945;48.516;-2.768;2024-02-21T01:19:53;11.00;80.50
72814;DHT22;60945;48.516;-2.768;2024-02-21T01:22:19;11.00;79.80
72814;DHT22;60945;48.516;-2.768;2024-02-21T01:24:45;10.90;80.10
72814;DHT22;60945;48.516;-2.768;2024-02-21T01:27:10;10.90;79.70
72814;DHT22;60945;48.516;-2.768;2024-02-21T01:29:36;10.80;79.90
72814;DHT22;60945;48.516;-2.768;2024-02-21T01:32:02;10.70;79.90
72814;DHT22;60945;48.516;-2.768;2024-02-21T01:34:27;10.70;80.20
72814;DHT22;60945;48.516;-2.768;2024-02-21T01:36:53;10.70;80.10
72814;DHT22;60945;48.516;-2.768;2024-02-21T01:39:19;10.70;79.50
72814;DHT22;60945;48.516;-2.768;2024-02-21T01:41:44;10.70;79.40
72814;DHT22;60945;48.516;-2.768;2024-02-21T01:44:10;10.80;79.50
72814;DHT22;60945;48.516;-2.768;2024-02-21T01:46:36;10.70;79.10
72814;DHT22;60945;48.516;-2.768;2024-02-21T01:49:02;10.80;79.30
72814;DHT22;60945;48.516;-2.768;2024-02-21T01:51:28;10.90;78.90
72814;DHT22;60945;48.516;-2.768;2024-02-21T01:53:55;10.80;79.00
72814;DHT22;60945;48.516;-2.768;2024-02-21T01:56:22;10.80;79.20
72814;DHT22;60945;48.516;-2.768;2024-02-21T01:58:48;10.80;79.20
72814;DHT22;60945;48.516;-2.768;2024-02-21T02:01:14;10.90;79.10
72814;DHT22;60945;48.516;-2.768;2024-02-21T02:03:40;10.80;79.40
72814;DHT22;60945;48.516;-2.768;2024-02-21T02:06:06;10.80;79.70
72814;DHT22;60945;48.516;-2.768;2024-02-21T02:08:32;10.90;79.30
72814;DHT22;60945;48.516;-2.768;2024-02-21T02:10:59;10.70;79.90
72814;DHT22;60945;48.516;-2.768;2024-02-21T02:13:25;10.70;80.20
72814;DHT22;60945;48.516;-2.768;2024-02-21T02:15:50;10.90;79.70
72814;DHT22;60945;48.516;-2.768;2024-02-21T02:18:17;11.00;79.30
72814;DHT22;60945;48.516;-2.768;2024-02-21T02:20:44;10.90;79.30
72814;DHT22;60945;48.516;-2.768;2024-02-21T02:25:48;10.70;80.30
72814;DHT22;60945;48.516;-2.768;2024-02-21T02:28:14;10.80;80.20
72814;DHT22;60945;48.516;-2.768;2024-02-21T02:30:40;10.80;79.90
72814;DHT22;60945;48.516;-2.768;2024-02-21T02:33:06;10.90;79.70
72814;DHT22;60945;48.516;-2.768;2024-02-21T02:35:32;11.00;79.40
72814;DHT22;60945;48.516;-2.768;2024-02-21T02:37:58;10.90;79.20
72814;DHT22;60945;48.516;-2.768;2024-02-21T02:40:24;10.90;79.40
72814;DHT22;60945;48.516;-2.768;2024-02-21T02:42:50;10.90;79.20
72814;DHT22;60945;48.516;-2.768;2024-02-21T02:45:17;10.90;79.30
72814;DHT22;60945;48.516;-2.768;2024-02-21T02:47:46;10.90;78.60
72814;DHT22;60945;48.516;-2.768;2024-02-21T02:50:12;11.10;78.90
72814;DHT22;60945;48.516;-2.768;2024-02-21T02:52:38;11.10;78.10
72814;DHT22;60945;48.516;-2.768;2024-02-21T02:55:04;11.30;77.80
72814;DHT22;60945;48.516;-2.768;2024-02-21T02:57:30;11.30;77.20
72814;DHT22;60945;48.516;-2.768;2024-02-21T02:59:56;11.10;77.90
72814;DHT22;60945;48.516;-2.768;2024-02-21T03:02:22;11.30;77.80
72814;DHT22;60945;48.516;-2.768;2024-02-21T03:04:48;11.30;77.20
72814;DHT22;60945;48.516;-2.768;2024-02-21T03:07:14;11.10;78.20
72814;DHT22;60945;48.516;-2.768;2024-02-21T03:09:40;11.30;77.90
72814;DHT22;60945;48.516;-2.768;2024-02-21T03:12:09;11.30;77.60
72814;DHT22;60945;48.516;-2.768;2024-02-21T03:14:35;11.30;77.80
72814;DHT22;60945;48.516;-2.768;2024-02-21T03:17:01;11.30;77.40
72814;DHT22;60945;48.516;-2.768;2024-02-21T03:19:27;11.30;77.00
72814;DHT22;60945;48.516;-2.768;2024-02-21T03:21:54;11.20;77.50
72814;DHT22;60945;48.516;-2.768;2024-02-21T03:24:20;11.10;78.00
72814;DHT22;60945;48.516;-2.768;2024-02-21T03:26:46;11.00;78.20
72814;DHT22;60945;48.516;-2.768;2024-02-21T03:29:16;11.20;77.90
72814;DHT22;60945;48.516;-2.768;2024-02-21T03:31:42;11.00;78.40
72814;DHT22;60945;48.516;-2.768;2024-02-21T03:34:10;11.00;78.70
72814;DHT22;60945;48.516;-2.768;2024-02-21T03:36:36;11.00;78.90
72814;DHT22;60945;48.516;-2.768;2024-02-21T03:39:02;11.00;79.20
72814;DHT22;60945;48.516;-2.768;2024-02-21T03:41:28;11.00;78.90
72814;DHT22;60945;48.516;-2.768;2024-02-21T03:43:54;11.00;78.90
72814;DHT22;60945;48.516;-2.768;2024-02-21T03:46:20;11.10;78.90
72814;DHT22;60945;48.516;-2.768;2024-02-21T03:48:45;11.10;78.70
72814;DHT22;60945;48.516;-2.768;2024-02-21T03:51:11;11.10;78.30
72814;DHT22;60945;48.516;-2.768;2024-02-21T03:53:37;11.20;78.20
72814;DHT22;60945;48.516;-2.768;2024-02-21T03:56:03;11.10;78.50
72814;DHT22;60945;48.516;-2.768;2024-02-21T03:58:32;10.90;79.20
72814;DHT22;60945;48.516;-2.768;2024-02-21T04:01:00;11.00;79.30
72814;DHT22;60945;48.516;-2.768;2024-02-21T04:03:26;11.00;79.60
72814;DHT22;60945;48.516;-2.768;2024-02-21T04:05:51;11.10;79.30
72814;DHT22;60945;48.516;-2.768;2024-02-21T04:08:17;11.00;79.80
72814;DHT22;60945;48.516;-2.768;2024-02-21T04:10:43;11.10;79.50
72814;DHT22;60945;48.516;-2.768;2024-02-21T04:13:09;11.10;79.50
72814;DHT22;60945;48.516;-2.768;2024-02-21T04:15:35;11.10;79.50
72814;DHT22;60945;48.516;-2.768;2024-02-21T04:18:01;11.20;79.20
72814;DHT22;60945;48.516;-2.768;2024-02-21T04:20:27;11.30;79.00
72814;DHT22;60945;48.516;-2.768;2024-02-21T04:22:52;11.20;79.10
72814;DHT22;60945;48.516;-2.768;2024-02-21T04:25:18;11.20;79.40
72814;DHT22;60945;48.516;-2.768;2024-02-21T04:27:44;11.20;79.50
72814;DHT22;60945;48.516;-2.768;2024-02-21T04:30:10;11.00;80.00
72814;DHT22;60945;48.516;-2.768;2024-02-21T04:32:36;11.00;80.40
72814;DHT22;60945;48.516;-2.768;2024-02-21T04:35:01;11.00;80.40
72814;DHT22;60945;48.516;-2.768;2024-02-21T04:37:27;11.00;80.30
72814;DHT22;60945;48.516;-2.768;2024-02-21T04:39:53;11.20;80.00
72814;DHT22;60945;48.516;-2.768;2024-02-21T04:42:18;11.20;79.60
72814;DHT22;60945;48.516;-2.768;2024-02-21T04:44:44;11.10;80.20
72814;DHT22;60945;48.516;-2.768;2024-02-21T04:47:10;11.10;80.40
72814;DHT22;60945;48.516;-2.768;2024-02-21T04:49:35;11.20;80.30
72814;DHT22;60945;48.516;-2.768;2024-02-21T04:52:01;11.20;80.00
72814;DHT22;60945;48.516;-2.768;2024-02-21T04:54:27;11.10;80.20
72814;DHT22;60945;48.516;-2.768;2024-02-21T04:56:53;11.00;80.80
72814;DHT22;60945;48.516;-2.768;2024-02-21T04:59:18;11.00;81.00
72814;DHT22;60945;48.516;-2.768;2024-02-21T05:01:44;11.10;80.80
72814;DHT22;60945;48.516;-2.768;2024-02-21T05:04:10;11.20;80.50
72814;DHT22;60945;48.516;-2.768;2024-02-21T05:06:42;11.10;81.00
72814;DHT22;60945;48.516;-2.768;2024-02-21T05:09:11;11.20;80.50
72814;DHT22;60945;48.516;-2.768;2024-02-21T05:11:37;11.30;80.00
72814;DHT22;60945;48.516;-2.768;2024-02-21T05:14:04;11.30;79.70
72814;DHT22;60945;48.516;-2.768;2024-02-21T05:16:30;11.20;80.00
72814;DHT22;60945;48.516;-2.768;2024-02-21T05:18:55;11.10;80.80
72814;DHT22;60945;48.516;-2.768;2024-02-21T05:21:23;11.20;80.90
72814;DHT22;60945;48.516;-2.768;2024-02-21T05:23:52;11.30;80.70
72814;DHT22;60945;48.516;-2.768;2024-02-21T05:26:21;11.40;80.00
72814;DHT22;60945;48.516;-2.768;2024-02-21T05:28:48;11.10;81.30
72814;DHT22;60945;48.516;-2.768;2024-02-21T05:31:15;11.10;81.70
72814;DHT22;60945;48.516;-2.768;2024-02-21T05:33:41;11.00;81.80
72814;DHT22;60945;48.516;-2.768;2024-02-21T05:36:07;11.00;81.90
72814;DHT22;60945;48.516;-2.768;2024-02-21T05:38:33;11.00;82.10
72814;DHT22;60945;48.516;-2.768;2024-02-21T05:40:58;11.00;82.20
72814;DHT22;60945;48.516;-2.768;2024-02-21T05:43:28;11.00;82.10
72814;DHT22;60945;48.516;-2.768;2024-02-21T05:45:53;11.00;81.80
72814;DHT22;60945;48.516;-2.768;2024-02-21T05:48:20;11.00;82.00
72814;DHT22;60945;48.516;-2.768;2024-02-21T05:50:45;11.00;82.10
72814;DHT22;60945;48.516;-2.768;2024-02-21T05:53:11;11.10;82.00
72814;DHT22;60945;48.516;-2.768;2024-02-21T05:55:39;11.30;81.40
72814;DHT22;60945;48.516;-2.768;2024-02-21T05:58:04;11.20;81.50
72814;DHT22;60945;48.516;-2.768;2024-02-21T06:00:32;11.00;82.40
72814;DHT22;60945;48.516;-2.768;2024-02-21T06:02:57;11.10;82.40
72814;DHT22;60945;48.516;-2.768;2024-02-21T06:05:23;11.10;82.40
72814;DHT22;60945;48.516;-2.768;2024-02-21T06:07:49;11.10;82.40
72814;DHT22;60945;48.516;-2.768;2024-02-21T06:10:15;11.10;82.70
72814;DHT22;60945;48.516;-2.768;2024-02-21T06:12:40;11.10;82.70
72814;DHT22;60945;48.516;-2.768;2024-02-21T06:15:06;11.20;82.10
72814;DHT22;60945;48.516;-2.768;2024-02-21T06:17:32;11.20;82.10
72814;DHT22;60945;48.516;-2.768;2024-02-21T06:19:58;11.10;82.80
72814;DHT22;60945;48.516;-2.768;2024-02-21T06:22:23;11.20;82.70
72814;DHT22;60945;48.516;-2.768;2024-02-21T06:24:49;11.10;83.50
72814;DHT22;60945;48.516;-2.768;2024-02-21T06:27:15;11.10;83.70
72814;DHT22;60945;48.516;-2.768;2024-02-21T06:29:42;11.10;84.00
72814;DHT22;60945;48.516;-2.768;2024-02-21T06:32:07;11.00;85.00
72814;DHT22;60945;48.516;-2.768;2024-02-21T06:34:33;11.00;85.60
72814;DHT22;60945;48.516;-2.768;2024-02-21T06:36:59;11.00;86.70
72814;DHT22;60945;48.516;-2.768;2024-02-21T06:39:24;10.90;88.00
72814;DHT22;60945;48.516;-2.768;2024-02-21T06:41:50;10.90;88.80
72814;DHT22;60945;48.516;-2.768;2024-02-21T06:44:17;10.70;90.50
72814;DHT22;60945;48.516;-2.768;2024-02-21T06:46:43;10.80;89.90
72814;DHT22;60945;48.516;-2.768;2024-02-21T06:49:08;10.70;90.10
72814;DHT22;60945;48.516;-2.768;2024-02-21T06:51:34;10.70;90.70
72814;DHT22;60945;48.516;-2.768;2024-02-21T06:54:00;10.80;90.00
72814;DHT22;60945;48.516;-2.768;2024-02-21T06:56:26;10.70;90.00
72814;DHT22;60945;48.516;-2.768;2024-02-21T06:58:57;10.70;91.40
72814;DHT22;60945;48.516;-2.768;2024-02-21T07:01:24;10.60;91.20
72814;DHT22;60945;48.516;-2.768;2024-02-21T07:03:50;10.60;92.70
72814;DHT22;60945;48.516;-2.768;2024-02-21T07:06:15;10.60;92.10
72814;DHT22;60945;48.516;-2.768;2024-02-21T07:08:41;10.60;92.00
72814;DHT22;60945;48.516;-2.768;2024-02-21T07:11:07;10.60;91.70
72814;DHT22;60945;48.516;-2.768;2024-02-21T07:13:33;10.60;91.50
72814;DHT22;60945;48.516;-2.768;2024-02-21T07:15:58;10.60;92.00
72814;DHT22;60945;48.516;-2.768;2024-02-21T07:18:24;10.60;91.70
72814;DHT22;60945;48.516;-2.768;2024-02-21T07:20:51;10.60;91.90
72814;DHT22;60945;48.516;-2.768;2024-02-21T07:23:18;10.60;91.60
72814;DHT22;60945;48.516;-2.768;2024-02-21T07:25:44;10.60;91.10
72814;DHT22;60945;48.516;-2.768;2024-02-21T07:28:09;10.70;91.60
72814;DHT22;60945;48.516;-2.768;2024-02-21T07:30:35;10.60;90.90
72814;DHT22;60945;48.516;-2.768;2024-02-21T07:33:01;10.60;91.80
72814;DHT22;60945;48.516;-2.768;2024-02-21T07:35:26;10.50;91.90
72814;DHT22;60945;48.516;-2.768;2024-02-21T07:37:52;10.70;91.80
72814;DHT22;60945;48.516;-2.768;2024-02-21T07:40:18;10.60;90.80
72814;DHT22;60945;48.516;-2.768;2024-02-21T07:42:44;10.60;90.70
72814;DHT22;60945;48.516;-2.768;2024-02-21T07:45:10;10.70;90.60
72814;DHT22;60945;48.516;-2.768;2024-02-21T07:47:36;10.60;91.10
72814;DHT22;60945;48.516;-2.768;2024-02-21T07:50:05;10.70;90.40
72814;DHT22;60945;48.516;-2.768;2024-02-21T07:52:32;10.80;88.80
72814;DHT22;60945;48.516;-2.768;2024-02-21T07:54:58;10.80;89.40
72814;DHT22;60945;48.516;-2.768;2024-02-21T07:57:23;10.90;89.10
72814;DHT22;60945;48.516;-2.768;2024-02-21T07:59:49;10.80;89.70
72814;DHT22;60945;48.516;-2.768;2024-02-21T08:02:15;10.70;89.50
72814;DHT22;60945;48.516;-2.768;2024-02-21T08:04:41;10.80;89.50
72814;DHT22;60945;48.516;-2.768;2024-02-21T08:07:06;10.80;89.60
72814;DHT22;60945;48.516;-2.768;2024-02-21T08:09:32;10.80;89.90
72814;DHT22;60945;48.516;-2.768;2024-02-21T08:11:58;10.80;89.50
72814;DHT22;60945;48.516;-2.768;2024-02-21T08:14:23;10.70;90.00
72814;DHT22;60945;48.516;-2.768;2024-02-21T08:16:51;10.90;89.50
72814;DHT22;60945;48.516;-2.768;2024-02-21T08:19:19;11.00;88.70
72814;DHT22;60945;48.516;-2.768;2024-02-21T08:21:44;10.90;89.10
72814;DHT22;60945;48.516;-2.768;2024-02-21T08:24:13;10.90;89.30
72814;DHT22;60945;48.516;-2.768;2024-02-21T08:26:40;10.90;89.70
72814;DHT22;60945;48.516;-2.768;2024-02-21T08:29:06;10.80;90.20
72814;DHT22;60945;48.516;-2.768;2024-02-21T08:31:32;10.80;89.70
72814;DHT22;60945;48.516;-2.768;2024-02-21T08:33:58;10.80;90.70
72814;DHT22;60945;48.516;-2.768;2024-02-21T08:36:31;10.80;90.40
72814;DHT22;60945;48.516;-2.768;2024-02-21T08:38:57;10.90;89.90
72814;DHT22;60945;48.516;-2.768;2024-02-21T08:41:24;10.80;90.50
72814;DHT22;60945;48.516;-2.768;2024-02-21T08:43:55;10.80;91.30
72814;DHT22;60945;48.516;-2.768;2024-02-21T08:46:21;10.80;92.20
72814;DHT22;60945;48.516;-2.768;2024-02-21T08:48:47;11.00;91.20
72814;DHT22;60945;48.516;-2.768;2024-02-21T08:51:13;10.80;91.20
72814;DHT22;60945;48.516;-2.768;2024-02-21T08:53:39;10.90;92.10
72814;DHT22;60945;48.516;-2.768;2024-02-21T08:56:05;10.80;90.80
72814;DHT22;60945;48.516;-2.768;2024-02-21T08:58:33;10.80;91.00
72814;DHT22;60945;48.516;-2.768;2024-02-21T09:00:58;10.90;90.90
72814;DHT22;60945;48.516;-2.768;2024-02-21T09:03:24;10.70;93.20
72814;DHT22;60945;48.516;-2.768;2024-02-21T09:05:50;10.70;92.00
72814;DHT22;60945;48.516;-2.768;2024-02-21T09:08:16;10.60;94.00
72814;DHT22;60945;48.516;-2.768;2024-02-21T09:10:41;10.60;97.80
72814;DHT22;60945;48.516;-2.768;2024-02-21T09:13:07;10.60;97.90
72814;DHT22;60945;48.516;-2.768;2024-02-21T09:15:34;10.60;95.60
72814;DHT22;60945;48.516;-2.768;2024-02-21T09:17:59;10.70;96.50
72814;DHT22;60945;48.516;-2.768;2024-02-21T09:20:25;10.60;92.60
72814;DHT22;60945;48.516;-2.768;2024-02-21T09:22:51;10.70;97.70
72814;DHT22;60945;48.516;-2.768;2024-02-21T09:25:18;10.80;94.90
72814;DHT22;60945;48.516;-2.768;2024-02-21T09:27:44;10.80;93.90
72814;DHT22;60945;48.516;-2.768;2024-02-21T09:30:10;10.90;94.80
72814;DHT22;60945;48.516;-2.768;2024-02-21T09:32:37;10.80;91.40
72814;DHT22;60945;48.516;-2.768;2024-02-21T09:35:03;10.70;92.20
72814;DHT22;60945;48.516;-2.768;2024-02-21T09:37:31;10.80;92.80
72814;DHT22;60945;48.516;-2.768;2024-02-21T09:39:56;10.90;92.20
72814;DHT22;60945;48.516;-2.768;2024-02-21T09:42:30;10.80;91.30
72814;DHT22;60945;48.516;-2.768;2024-02-21T09:45:00;10.80;93.00
72814;DHT22;60945;48.516;-2.768;2024-02-21T09:47:36;10.90;91.60
72814;DHT22;60945;48.516;-2.768;2024-02-21T09:50:05;10.90;92.00
72814;DHT22;60945;48.516;-2.768;2024-02-21T09:52:32;11.00;90.70
72814;DHT22;60945;48.516;-2.768;2024-02-21T09:55:01;10.90;91.50
72814;DHT22;60945;48.516;-2.768;2024-02-21T09:57:27;10.90;92.40
72814;DHT22;60945;48.516;-2.768;2024-02-21T09:59:55;10.90;92.00
72814;DHT22;60945;48.516;-2.768;2024-02-21T10:02:22;11.00;92.30
72814;DHT22;60945;48.516;-2.768;2024-02-21T10:04:47;11.10;92.30
72814;DHT22;60945;48.516;-2.768;2024-02-21T10:07:13;11.10;90.80
72814;DHT22;60945;48.516;-2.768;2024-02-21T10:09:39;11.20;90.90
72814;DHT22;60945;48.516;-2.768;2024-02-21T10:12:10;11.20;89.40
72814;DHT22;60945;48.516;-2.768;2024-02-21T10:14:36;11.20;90.10
72814;DHT22;60945;48.516;-2.768;2024-02-21T10:17:02;11.30;91.00
72814;DHT22;60945;48.516;-2.768;2024-02-21T10:19:29;11.20;89.50
72814;DHT22;60945;48.516;-2.768;2024-02-21T10:22:03;11.20;89.00
72814;DHT22;60945;48.516;-2.768;2024-02-21T10:24:30;11.10;90.40
72814;DHT22;60945;48.516;-2.768;2024-02-21T10:27:02;11.30;89.30
72814;DHT22;60945;48.516;-2.768;2024-02-21T10:29:32;11.30;89.10
72814;DHT22;60945;48.516;-2.768;2024-02-21T10:32:09;11.30;88.30
72814;DHT22;60945;48.516;-2.768;2024-02-21T10:34:35;11.10;91.20
72814;DHT22;60945;48.516;-2.768;2024-02-21T10:37:06;11.00;90.40
72814;DHT22;60945;48.516;-2.768;2024-02-21T10:39:40;11.10;92.80
72814;DHT22;60945;48.516;-2.768;2024-02-21T10:42:06;11.20;91.70
72814;DHT22;60945;48.516;-2.768;2024-02-21T10:44:36;10.90;92.40
72814;DHT22;60945;48.516;-2.768;2024-02-21T10:47:09;10.70;95.60
72814;DHT22;60945;48.516;-2.768;2024-02-21T10:49:39;10.80;95.10
72814;DHT22;60945;48.516;-2.768;2024-02-21T10:55:00;10.80;93.50
72814;DHT22;60945;48.516;-2.768;2024-02-21T10:57:29;10.80;94.90
72814;DHT22;60945;48.516;-2.768;2024-02-21T10:59:58;10.80;94.10
72814;DHT22;60945;48.516;-2.768;2024-02-21T11:02:25;10.70;91.00
72814;DHT22;60945;48.516;-2.768;2024-02-21T11:04:52;10.70;93.90
72814;DHT22;60945;48.516;-2.768;2024-02-21T11:07:19;10.60;89.40
72814;DHT22;60945;48.516;-2.768;2024-02-21T11:09:52;10.50;91.20
72814;DHT22;60945;48.516;-2.768;2024-02-21T11:12:22;10.60;87.30
72814;DHT22;60945;48.516;-2.768;2024-02-21T11:14:48;10.50;88.40
72814;DHT22;60945;48.516;-2.768;2024-02-21T11:17:17;10.60;86.50
72814;DHT22;60945;48.516;-2.768;2024-02-21T11:19:43;10.60;85.70
72814;DHT22;60945;48.516;-2.768;2024-02-21T11:22:19;10.60;86.30
72814;DHT22;60945;48.516;-2.768;2024-02-21T11:24:47;10.70;82.90
72814;DHT22;60945;48.516;-2.768;2024-02-21T11:27:18;10.70;83.10
72814;DHT22;60945;48.516;-2.768;2024-02-21T11:29:46;10.60;83.40
72814;DHT22;60945;48.516;-2.768;2024-02-21T11:32:14;10.60;82.10
72814;DHT22;60945;48.516;-2.768;2024-02-21T11:34:41;10.50;83.80
72814;DHT22;60945;48.516;-2.768;2024-02-21T11:37:15;10.40;85.10
72814;DHT22;60945;48.516;-2.768;2024-02-21T11:39:41;10.60;84.20
72814;DHT22;60945;48.516;-2.768;2024-02-21T11:42:08;10.60;83.70
72814;DHT22;60945;48.516;-2.768;2024-02-21T11:44:35;10.70;82.40
72814;DHT22;60945;48.516;-2.768;2024-02-21T11:47:04;10.70;82.40
72814;DHT22;60945;48.516;-2.768;2024-02-21T11:49:29;10.80;82.20
72814;DHT22;60945;48.516;-2.768;2024-02-21T11:52:00;11.00;82.10
72814;DHT22;60945;48.516;-2.768;2024-02-21T11:54:27;11.00;81.10
72814;DHT22;60945;48.516;-2.768;2024-02-21T11:56:52;11.00;81.60
72814;DHT22;60945;48.516;-2.768;2024-02-21T11:59:18;11.10;81.20
72814;DHT22;60945;48.516;-2.768;2024-02-21T12:01:44;11.00;81.70
72814;DHT22;60945;48.516;-2.768;2024-02-21T12:04:10;11.10;81.90
72814;DHT22;60945;48.516;-2.768;2024-02-21T12:06:35;10.90;82.70
72814;DHT22;60945;48.516;-2.768;2024-02-21T12:09:01;10.90;83.70
72814;DHT22;60945;48.516;-2.768;2024-02-21T12:11:27;10.80;86.10
72814;DHT22;60945;48.516;-2.768;2024-02-21T12:14:03;10.90;85.30
72814;DHT22;60945;48.516;-2.768;2024-02-21T12:16:30;10.90;86.20
72814;DHT22;60945;48.516;-2.768;2024-02-21T12:18:57;10.90;86.40
72814;DHT22;60945;48.516;-2.768;2024-02-21T12:21:27;11.00;86.80
72814;DHT22;60945;48.516;-2.768;2024-02-21T12:23:55;11.20;86.00
72814;DHT22;60945;48.516;-2.768;2024-02-21T12:26:21;11.30;85.60
72814;DHT22;60945;48.516;-2.768;2024-02-21T12:28:47;11.30;86.30
72814;DHT22;60945;48.516;-2.768;2024-02-21T12:31:13;11.30;87.50
72814;DHT22;60945;48.516;-2.768;2024-02-21T12:33:39;11.40;87.40
72814;DHT22;60945;48.516;-2.768;2024-02-21T12:36:05;11.40;88.30
72814;DHT22;60945;48.516;-2.768;2024-02-21T12:38:31;11.60;87.80
72814;DHT22;60945;48.516;-2.768;2024-02-21T12:40:56;11.60;88.20
72814;DHT22;60945;48.516;-2.768;2024-02-21T12:43:26;11.70;88.90
72814;DHT22;60945;48.516;-2.768;2024-02-21T12:45:52;11.80;88.50
72814;DHT22;60945;48.516;-2.768;2024-02-21T12:48:18;11.60;90.10
72814;DHT22;60945;48.516;-2.768;2024-02-21T12:50:51;11.80;89.70
72814;DHT22;60945;48.516;-2.768;2024-02-21T12:53:20;11.80;88.80
72814;DHT22;60945;48.516;-2.768;2024-02-21T12:55:50;12.00;89.60
72814;DHT22;60945;48.516;-2.768;2024-02-21T12:58:15;12.30;88.50
72814;DHT22;60945;48.516;-2.768;2024-02-21T13:00:42;12.70;86.70
72814;DHT22;60945;48.516;-2.768;2024-02-21T13:03:08;13.20;84.30
72814;DHT22;60945;48.516;-2.768;2024-02-21T13:05:38;12.90;85.10
72814;DHT22;60945;48.516;-2.768;2024-02-21T13:08:05;12.80;86.30
72814;DHT22;60945;48.516;-2.768;2024-02-21T13:10:31;13.00;86.40
72814;DHT22;60945;48.516;-2.768;2024-02-21T13:12:58;12.60;88.00
72814;DHT22;60945;48.516;-2.768;2024-02-21T13:15:24;12.40;89.90
72814;DHT22;60945;48.516;-2.768;2024-02-21T13:17:50;12.40;90.60
72814;DHT22;60945;48.516;-2.768;2024-02-21T13:20:15;12.60;91.50
72814;DHT22;60945;48.516;-2.768;2024-02-21T13:22:41;12.60;91.00
72814;DHT22;60945;48.516;-2.768;2024-02-21T13:25:07;12.60;91.70
72814;DHT22;60945;48.516;-2.768;2024-02-21T13:27:33;12.80;91.40
72814;DHT22;60945;48.516;-2.768;2024-02-21T13:29:59;12.80;90.30
72814;DHT22;60945;48.516;-2.768;2024-02-21T13:32:27;13.10;91.70
72814;DHT22;60945;48.516;-2.768;2024-02-21T13:34:52;13.10;90.00
72814;DHT22;60945;48.516;-2.768;2024-02-21T13:37:18;13.30;89.90
72814;DHT22;60945;48.516;-2.768;2024-02-21T13:39:43;13.20;89.90
72814;DHT22;60945;48.516;-2.768;2024-02-21T13:42:09;13.30;92.00
72814;DHT22;60945;48.516;-2.768;2024-02-21T13:44:35;13.40;90.80
72814;DHT22;60945;48.516;-2.768;2024-02-21T13:47:02;13.70;90.10
72814;DHT22;60945;48.516;-2.768;2024-02-21T13:49:28;13.60;89.60
72814;DHT22;60945;48.516;-2.768;2024-02-21T13:51:55;13.50;90.70
72814;DHT22;60945;48.516;-2.768;2024-02-21T13:54:21;13.50;89.60
72814;DHT22;60945;48.516;-2.768;2024-02-21T13:56:47;13.60;89.00
72814;DHT22;60945;48.516;-2.768;2024-02-21T13:59:13;13.60;90.00
72814;DHT22;60945;48.516;-2.768;2024-02-21T14:01:41;13.60;89.90
72814;DHT22;60945;48.516;-2.768;2024-02-21T14:04:08;13.40;90.50
72814;DHT22;60945;48.516;-2.768;2024-02-21T14:06:33;13.40;91.20
72814;DHT22;60945;48.516;-2.768;2024-02-21T14:08:59;13.60;91.90
72814;DHT22;60945;48.516;-2.768;2024-02-21T14:11:26;13.60;90.90
72814;DHT22;60945;48.516;-2.768;2024-02-21T14:13:52;13.40;93.50
72814;DHT22;60945;48.516;-2.768;2024-02-21T14:16:18;13.20;94.00
72814;DHT22;60945;48.516;-2.768;2024-02-21T14:18:44;13.30;94.10
72814;DHT22;60945;48.516;-2.768;2024-02-21T14:21:10;13.50;93.40
72814;DHT22;60945;48.516;-2.768;2024-02-21T14:23:39;13.50;92.00
72814;DHT22;60945;48.516;-2.768;2024-02-21T14:26:05;13.50;93.60
72814;DHT22;60945;48.516;-2.768;2024-02-21T14:28:32;13.50;93.40
72814;DHT22;60945;48.516;-2.768;2024-02-21T14:30:59;13.50;93.90
72814;DHT22;60945;48.516;-2.768;2024-02-21T14:33:26;13.70;95.70
72814;DHT22;60945;48.516;-2.768;2024-02-21T14:35:54;13.70;92.50
72814;DHT22;60945;48.516;-2.768;2024-02-21T14:38:20;13.50;95.00
72814;DHT22;60945;48.516;-2.768;2024-02-21T14:40:45;13.80;98.60
72814;DHT22;60945;48.516;-2.768;2024-02-21T14:43:11;13.90;94.40
72814;DHT22;60945;48.516;-2.768;2024-02-21T14:45:37;13.80;94.10
72814;DHT22;60945;48.516;-2.768;2024-02-21T14:48:06;13.50;94.30
72814;DHT22;60945;48.516;-2.768;2024-02-21T14:50:33;13.60;97.20
72814;DHT22;60945;48.516;-2.768;2024-02-21T14:52:59;13.60;95.00
72814;DHT22;60945;48.516;-2.768;2024-02-21T14:55:24;13.60;94.40
72814;DHT22;60945;48.516;-2.768;2024-02-21T14:57:50;13.50;94.90
72814;DHT22;60945;48.516;-2.768;2024-02-21T15:00:16;13.60;94.40
72814;DHT22;60945;48.516;-2.768;2024-02-21T15:02:42;13.70;96.40
72814;DHT22;60945;48.516;-2.768;2024-02-21T15:05:08;13.70;95.40
72814;DHT22;60945;48.516;-2.768;2024-02-21T15:07:34;13.80;95.50
72814;DHT22;60945;48.516;-2.768;2024-02-21T15:10:00;13.80;94.20
72814;DHT22;60945;48.516;-2.768;2024-02-21T15:12:26;13.70;94.30
72814;DHT22;60945;48.516;-2.768;2024-02-21T15:14:51;13.80;93.60
72814;DHT22;60945;48.516;-2.768;2024-02-21T15:17:17;13.90;94.20